sensor_id;sensor_type;location;lat;lon;timestamp;temperature;humidity
81935;DHT22;71405;47.674;-2.050;2024-02-16T00:01:59;19.30;61.20
81935;DHT22;71405;47.674;-2.050;2024-02-16T00:04:24;19.30;61.20
81935;DHT22;71405;47.674;-2.050;2024-02-16T00:06:50;19.30;61.30
81935;DHT22;71405;47.674;-2.050;2024-02-16T00:09:16;19.30;61.40
81935;DHT22;71405;47.674;-2.050;2024-02-16T00:11:42;19.30;61.30
81935;DHT22;71405;47.674;-2.050;2024-02-16T00:14:09;19.30;61.60
81935;DHT22;71405;47.674;-2.050;2024-02-16T00:16:34;19.30;61.80
81935;DHT22;71405;47.674;-2.050;2024-02-16T00:19:00;19.30;62.00
81935;DHT22;71405;47.674;-2.050;2024-02-16T00:21:26;19.30;61.30
81935;DHT22;71405;47.674;-2.050;2024-02-16T00:23:52;19.30;61.70
81935;DHT22;71405;47.674;-2.050;2024-02-16T00:26:18;19.30;61.80
81935;DHT22;71405;47.674;-2.050;2024-02-16T00:28:44;19.30;62.00
81935;DHT22;71405;47.674;-2.050;2024-02-16T00:31:10;19.30;62.00
81935;DHT22;71405;47.674;-2.050;2024-02-16T00:33:36;19.30;62.00
81935;DHT22;71405;47.674;-2.050;2024-02-16T00:36:01;19.30;62.20
81935;DHT22;71405;47.674;-2.050;2024-02-16T00:38:27;19.30;61.80
81935;DHT22;71405;47.674;-2.050;2024-02-16T00:40:53;19.30;61.70
81935;DHT22;71405;47.674;-2.050;2024-02-16T00:43:18;19.30;61.30
81935;DHT22;71405;47.674;-2.050;2024-02-16T00:45:44;19.30;61.40
81935;DHT22;71405;47.674;-2.050;2024-02-16T00:48:10;19.30;61.70
81935;DHT22;71405;47.674;-2.050;2024-02-16T00:50:36;19.30;61.20
81935;DHT22;71405;47.674;-2.050;2024-02-16T00:53:02;19.30;61.60
81935;DHT22;71405;47.674;-2.050;2024-02-16T00:55:28;19.30;61.60
81935;DHT22;71405;47.674;-2.050;2024-02-16T00:57:54;19.30;61.70
81935;DHT22;71405;47.674;-2.050;2024-02-16T01:00:19;19.30;61.40
81935;DHT22;71405;47.674;-2.050;2024-02-16T01:02:45;19.20;61.70
81935;DHT22;71405;47.674;-2.050;2024-02-16T01:05:11;19.20;61.70
81935;DHT22;71405;47.674;-2.050;2024-02-16T01:07:37;19.30;61.50
81935;DHT22;71405;47.674;-2.050;2024-02-16T01:10:03;19.30;61.60
81935;DHT22;71405;47.674;-2.050;2024-02-16T01:12:29;19.20;61.70
81935;DHT22;71405;47.674;-2.050;2024-02-16T01:14:56;19.30;61.80
81935;DHT22;71405;47.674;-2.050;2024-02-16T01:17:22;19.30;61.60
81935;DHT22;71405;47.674;-2.050;2024-02-16T01:19:47;19.30;61.50
81935;DHT22;71405;47.674;-2.050;2024-02-16T01:22:14;19.20;61.40
81935;DHT22;71405;47.674;-2.050;2024-02-16T01:24:39;19.20;61.60
81935;DHT22;71405;47.674;-2.050;2024-02-16T01:27:05;19.30;61.60
81935;DHT22;71405;47.674;-2.050;2024-02-16T01:29:31;19.20;61.60
81935;DHT22;71405;47.674;-2.050;2024-02-16T01:31:58;19.30;61.70
81935;DHT22;71405;47.674;-2.050;2024-02-16T01:34:24;19.30;61.60
81935;DHT22;71405;47.674;-2.050;2024-02-16T01:36:49;19.20;61.80
81935;DHT22;71405;47.674;-2.050;2024-02-16T01:39:15;19.20;61.80
81935;DHT22;71405;47.674;-2.050;2024-02-16T01:41:40;19.30;61.50
81935;DHT22;71405;47.674;-2.050;2024-02-16T01:44:06;19.20;61.90
81935;DHT22;71405;47.674;-2.050;2024-02-16T01:46:33;19.20;61.70
81935;DHT22;71405;47.674;-2.050;2024-02-16T01:49:00;19.30;61.60
81935;DHT22;71405;47.674;-2.050;2024-02-16T01:51:26;19.30;61.60
81935;DHT22;71405;47.674;-2.050;2024-02-16T01:53:52;19.20;61.70
81935;DHT22;71405;47.674;-2.050;2024-02-16T01:56:20;19.20;61.90
81935;DHT22;71405;47.674;-2.050;2024-02-16T01:58:47;19.20;61.90
81935;DHT22;71405;47.674;-2.050;2024-02-16T02:01:13;19.20;62.00
81935;DHT22;71405;47.674;-2.050;2024-02-16T02:03:39;19.20;61.90
81935;DHT22;71405;47.674;-2.050;2024-02-16T02:06:05;19.20;62.00
81935;DHT22;71405;47.674;-2.050;2024-02-16T02:08:30;19.20;62.00
81935;DHT22;71405;47.674;-2.050;2024-02-16T02:10:57;19.20;62.00
81935;DHT22;71405;47.674;-2.050;2024-02-16T02:13:23;19.20;62.00
81935;DHT22;71405;47.674;-2.050;2024-02-16T02:15:48;19.20;62.00
81935;DHT22;71405;47.674;-2.050;2024-02-16T02:18:14;19.20;61.90
81935;DHT22;71405;47.674;-2.050;2024-02-16T02:20:40;19.20;61.60
81935;DHT22;71405;47.674;-2.050;2024-02-16T02:23:05;19.20;61.70
81935;DHT22;71405;47.674;-2.050;2024-02-16T02:25:31;19.20;61.60
81935;DHT22;71405;47.674;-2.050;2024-02-16T02:27:57;19.20;61.50
81935;DHT22;71405;47.674;-2.050;2024-02-16T02:30:22;19.20;61.60
81935;DHT22;71405;47.674;-2.050;2024-02-16T02:32:50;19.20;61.80
81935;DHT22;71405;47.674;-2.050;2024-02-16T02:35:16;19.20;61.60
81935;DHT22;71405;47.674;-2.050;2024-02-16T02:37:43;19.20;61.60
81935;DHT22;71405;47.674;-2.050;2024-02-16T02:40:09;19.20;61.70
81935;DHT22;71405;47.674;-2.050;2024-02-16T02:42:35;19.20;61.80
81935;DHT22;71405;47.674;-2.050;2024-02-16T02:45:02;19.20;61.60
81935;DHT22;71405;47.674;-2.050;2024-02-16T02:47:28;19.20;61.80
81935;DHT22;71405;47.674;-2.050;2024-02-16T02:49:53;19.20;61.60
81935;DHT22;71405;47.674;-2.050;2024-02-16T02:52:20;19.20;61.70
81935;DHT22;71405;47.674;-2.050;2024-02-16T02:54:46;19.20;61.50
81935;DHT22;71405;47.674;-2.050;2024-02-16T02:57:12;19.20;61.60
81935;DHT22;71405;47.674;-2.050;2024-02-16T02:59:38;19.20;61.70
81935;DHT22;71405;47.674;-2.050;2024-02-16T03:02:04;19.20;61.50
81935;DHT22;71405;47.674;-2.050;2024-02-16T03:04:29;19.20;61.60
81935;DHT22;71405;47.674;-2.050;2024-02-16T03:06:55;19.20;61.90
81935;DHT22;71405;47.674;-2.050;2024-02-16T03:09:21;19.20;61.90
81935;DHT22;71405;47.674;-2.050;2024-02-16T03:11:48;19.20;61.70
81935;DHT22;71405;47.674;-2.050;2024-02-16T03:14:14;19.20;61.60
81935;DHT22;71405;47.674;-2.050;2024-02-16T03:16:39;19.20;61.80
81935;DHT22;71405;47.674;-2.050;2024-02-16T03:19:06;19.20;61.80
81935;DHT22;71405;47.674;-2.050;2024-02-16T03:21:34;19.20;61.70
81935;DHT22;71405;47.674;-2.050;2024-02-16T03:24:01;19.20;61.90
81935;DHT22;71405;47.674;-2.050;2024-02-16T03:26:27;19.20;61.80
81935;DHT22;71405;47.674;-2.050;2024-02-16T03:28:52;19.20;61.80
81935;DHT22;71405;47.674;-2.050;2024-02-16T03:31:22;19.20;62.10
81935;DHT22;71405;47.674;-2.050;2024-02-16T03:33:49;19.20;61.80
81935;DHT22;71405;47.674;-2.050;2024-02-16T03:36:15;19.20;61.80
81935;DHT22;71405;47.674;-2.050;2024-02-16T03:38:45;19.20;61.90
81935;DHT22;71405;47.674;-2.050;2024-02-16T03:41:17;19.20;61.60
81935;DHT22;71405;47.674;-2.050;2024-02-16T03:43:43;19.20;61.50
81935;DHT22;71405;47.674;-2.050;2024-02-16T03:46:09;19.20;61.70
81935;DHT22;71405;47.674;-2.050;2024-02-16T03:48:34;19.20;61.60
81935;DHT22;71405;47.674;-2.050;2024-02-16T03:51:00;19.20;61.50
81935;DHT22;71405;47.674;-2.050;2024-02-16T03:53:26;19.20;61.50
81935;DHT22;71405;47.674;-2.050;2024-02-16T03:55:52;19.20;61.50
81935;DHT22;71405;47.674;-2.050;2024-02-16T03:58:17;19.20;61.50
81935;DHT22;71405;47.674;-2.050;2024-02-16T04:00:43;19.20;61.60
81935;DHT22;71405;47.674;-2.050;2024-02-16T04:03:09;19.20;61.70
81935;DHT22;71405;47.674;-2.050;2024-02-16T04:05:35;19.20;61.50
81935;DHT22;71405;47.674;-2.050;2024-02-16T04:08:03;19.20;61.30
81935;DHT22;71405;47.674;-2.050;2024-02-16T04:10:30;19.20;61.30
81935;DHT22;71405;47.674;-2.050;2024-02-16T04:12:55;19.20;61.20
81935;DHT22;71405;47.674;-2.050;2024-02-16T04:15:21;19.20;61.10
81935;DHT22;71405;47.674;-2.050;2024-02-16T04:17:47;19.20;61.00
81935;DHT22;71405;47.674;-2.050;2024-02-16T04:20:15;19.30;61.00
81935;DHT22;71405;47.674;-2.050;2024-02-16T04:22:41;19.30;60.90
81935;DHT22;71405;47.674;-2.050;2024-02-16T04:25:07;19.30;60.80
81935;DHT22;71405;47.674;-2.050;2024-02-16T04:27:34;19.30;60.80
81935;DHT22;71405;47.674;-2.050;2024-02-16T04:30:01;19.30;60.70
81935;DHT22;71405;47.674;-2.050;2024-02-16T04:32:26;19.30;60.70
81935;DHT22;71405;47.674;-2.050;2024-02-16T04:34:52;19.30;60.70
81935;DHT22;71405;47.674;-2.050;2024-02-16T04:37:18;19.30;60.70
81935;DHT22;71405;47.674;-2.050;2024-02-16T04:39:45;19.30;60.80
81935;DHT22;71405;47.674;-2.050;2024-02-16T04:42:10;19.30;60.70
81935;DHT22;71405;47.674;-2.050;2024-02-16T04:44:39;19.30;60.60
81935;DHT22;71405;47.674;-2.050;2024-02-16T04:47:05;19.40;60.70
81935;DHT22;71405;47.674;-2.050;2024-02-16T04:49:31;19.30;60.60
81935;DHT22;71405;47.674;-2.050;2024-02-16T04:51:57;19.40;60.60
81935;DHT22;71405;47.674;-2.050;2024-02-16T04:54:23;19.40;60.60
81935;DHT22;71405;47.674;-2.050;2024-02-16T04:56:50;19.40;60.70
81935;DHT22;71405;47.674;-2.050;2024-02-16T04:59:16;19.40;60.80
81935;DHT22;71405;47.674;-2.050;2024-02-16T05:01:43;19.40;60.80
81935;DHT22;71405;47.674;-2.050;2024-02-16T05:04:10;19.40;60.60
81935;DHT22;71405;47.674;-2.050;2024-02-16T05:06:41;19.40;60.60
81935;DHT22;71405;47.674;-2.050;2024-02-16T05:09:06;19.40;60.50
81935;DHT22;71405;47.674;-2.050;2024-02-16T05:11:32;19.40;60.60
81935;DHT22;71405;47.674;-2.050;2024-02-16T05:13:58;19.40;60.60
81935;DHT22;71405;47.674;-2.050;2024-02-16T05:16:25;19.40;60.60
81935;DHT22;71405;47.674;-2.050;2024-02-16T05:18:51;19.40;60.70
81935;DHT22;71405;47.674;-2.050;2024-02-16T05:21:16;19.40;60.60
81935;DHT22;71405;47.674;-2.050;2024-02-16T05:23:42;19.40;60.50
81935;DHT22;71405;47.674;-2.050;2024-02-16T05:26:08;19.50;60.50
81935;DHT22;71405;47.674;-2.050;2024-02-16T05:28:33;19.50;60.60
81935;DHT22;71405;47.674;-2.050;2024-02-16T05:31:14;19.50;60.60
81935;DHT22;71405;47.674;-2.050;2024-02-16T05:33:52;19.50;60.40
81935;DHT22;71405;47.674;-2.050;2024-02-16T05:36:19;19.50;60.30
81935;DHT22;71405;47.674;-2.050;2024-02-16T05:38:49;19.50;60.40
81935;DHT22;71405;47.674;-2.050;2024-02-16T05:41:16;19.50;60.40
81935;DHT22;71405;47.674;-2.050;2024-02-16T05:43:43;19.50;60.40
81935;DHT22;71405;47.674;-2.050;2024-02-16T05:46:16;19.50;60.30
81935;DHT22;71405;47.674;-2.050;2024-02-16T05:48:43;19.50;60.50
81935;DHT22;71405;47.674;-2.050;2024-02-16T05:51:09;19.50;60.30
81935;DHT22;71405;47.674;-2.050;2024-02-16T05:53:38;19.50;60.30
81935;DHT22;71405;47.674;-2.050;2024-02-16T05:56:04;19.50;60.30
81935;DHT22;71405;47.674;-2.050;2024-02-16T05:58:30;19.50;60.20
81935;DHT22;71405;47.674;-2.050;2024-02-16T06:00:56;19.50;60.20
81935;DHT22;71405;47.674;-2.050;2024-02-16T06:03:23;19.50;60.20
81935;DHT22;71405;47.674;-2.050;2024-02-16T06:05:49;19.50;60.20
81935;DHT22;71405;47.674;-2.050;2024-02-16T06:08:14;19.50;60.20
81935;DHT22;71405;47.674;-2.050;2024-02-16T06:10:44;19.50;60.50
81935;DHT22;71405;47.674;-2.050;2024-02-16T06:13:19;19.50;60.40
81935;DHT22;71405;47.674;-2.050;2024-02-16T06:15:46;19.50;60.20
81935;DHT22;71405;47.674;-2.050;2024-02-16T06:18:12;19.50;60.30
81935;DHT22;71405;47.674;-2.050;2024-02-16T06:20:38;19.50;60.40
81935;DHT22;71405;47.674;-2.050;2024-02-16T06:23:03;19.50;60.30
81935;DHT22;71405;47.674;-2.050;2024-02-16T06:25:29;19.50;60.40
81935;DHT22;71405;47.674;-2.050;2024-02-16T06:27:55;19.50;60.30
81935;DHT22;71405;47.674;-2.050;2024-02-16T06:30:20;19.50;60.20
81935;DHT22;71405;47.674;-2.050;2024-02-16T06:32:47;19.50;60.30
81935;DHT22;71405;47.674;-2.050;2024-02-16T06:35:13;19.40;60.70
81935;DHT22;71405;47.674;-2.050;2024-02-16T06:37:38;19.40;60.60
81935;DHT22;71405;47.674;-2.050;2024-02-16T06:40:05;19.40;61.00
81935;DHT22;71405;47.674;-2.050;2024-02-16T06:42:31;19.40;60.90
81935;DHT22;71405;47.674;-2.050;2024-02-16T06:44:59;19.40;60.80
81935;DHT22;71405;47.674;-2.050;2024-02-16T06:47:24;19.40;60.80
81935;DHT22;71405;47.674;-2.050;2024-02-16T06:49:51;19.40;61.00
81935;DHT22;71405;47.674;-2.050;2024-02-16T06:52:17;19.40;61.10
81935;DHT22;71405;47.674;-2.050;2024-02-16T06:54:42;19.40;60.80
81935;DHT22;71405;47.674;-2.050;2024-02-16T06:57:08;19.40;60.90
81935;DHT22;71405;47.674;-2.050;2024-02-16T06:59:34;19.40;60.40
81935;DHT22;71405;47.674;-2.050;2024-02-16T07:01:59;19.40;60.60
81935;DHT22;71405;47.674;-2.050;2024-02-16T07:04:25;19.40;60.50
81935;DHT22;71405;47.674;-2.050;2024-02-16T07:06:51;19.30;60.70
81935;DHT22;71405;47.674;-2.050;2024-02-16T07:09:16;19.40;60.70
81935;DHT22;71405;47.674;-2.050;2024-02-16T07:11:42;19.30;60.70
81935;DHT22;71405;47.674;-2.050;2024-02-16T07:14:12;19.30;61.00
81935;DHT22;71405;47.674;-2.050;2024-02-16T07:16:38;19.30;61.30
81935;DHT22;71405;47.674;-2.050;2024-02-16T07:19:04;19.30;61.30
81935;DHT22;71405;47.674;-2.050;2024-02-16T07:21:30;19.30;61.70
81935;DHT22;71405;47.674;-2.050;2024-02-16T07:23:56;19.30;62.50
81935;DHT22;71405;47.674;-2.050;2024-02-16T07:26:21;19.30;62.80
81935;DHT22;71405;47.674;-2.050;2024-02-16T07:28:47;19.30;63.70
81935;DHT22;71405;47.674;-2.050;2024-02-16T07:31:13;19.30;63.90
81935;DHT22;71405;47.674;-2.050;2024-02-16T07:33:40;19.30;63.60
81935;DHT22;71405;47.674;-2.050;2024-02-16T07:36:06;19.30;63.80
81935;DHT22;71405;47.674;-2.050;2024-02-16T07:38:32;19.30;63.60
81935;DHT22;71405;47.674;-2.050;2024-02-16T07:40:57;19.30;63.40
81935;DHT22;71405;47.674;-2.050;2024-02-16T07:43:24;19.30;63.40
81935;DHT22;71405;47.674;-2.050;2024-02-16T07:45:50;19.30;63.20
81935;DHT22;71405;47.674;-2.050;2024-02-16T07:48:19;19.30;63.20
81935;DHT22;71405;47.674;-2.050;2024-02-16T07:50:47;19.30;63.10
81935;DHT22;71405;47.674;-2.050;2024-02-16T07:53:13;19.30;63.10
81935;DHT22;71405;47.674;-2.050;2024-02-16T07:55:39;19.30;63.10
81935;DHT22;71405;47.674;-2.050;2024-02-16T07:58:04;19.30;63.00
81935;DHT22;71405;47.674;-2.050;2024-02-16T08:00:30;19.30;62.70
81935;DHT22;71405;47.674;-2.050;2024-02-16T08:02:56;19.30;62.70
81935;DHT22;71405;47.674;-2.050;2024-02-16T08:05:21;19.20;62.60
81935;DHT22;71405;47.674;-2.050;2024-02-16T08:07:47;19.20;62.70
81935;DHT22;71405;47.674;-2.050;2024-02-16T08:10:13;19.20;62.70
81935;DHT22;71405;47.674;-2.050;2024-02-16T08:12:39;19.20;62.50
81935;DHT22;71405;47.674;-2.050;2024-02-16T08:15:06;19.20;62.40
81935;DHT22;71405;47.674;-2.050;2024-02-16T08:17:36;19.20;62.50
81935;DHT22;71405;47.674;-2.050;2024-02-16T08:20:02;19.20;62.20
81935;DHT22;71405;47.674;-2.050;2024-02-16T08:22:29;19.20;62.20
81935;DHT22;71405;47.674;-2.050;2024-02-16T08:24:54;19.20;62.20
81935;DHT22;71405;47.674;-2.050;2024-02-16T08:27:20;19.20;62.20
81935;DHT22;71405;47.674;-2.050;2024-02-16T08:29:46;19.20;62.00
81935;DHT22;71405;47.674;-2.050;2024-02-16T08:32:11;19.20;62.20
81935;DHT22;71405;47.674;-2.050;2024-02-16T08:34:38;19.20;62.00
81935;DHT22;71405;47.674;-2.050;2024-02-16T08:37:04;19.20;61.90
81935;DHT22;71405;47.674;-2.050;2024-02-16T08:39:30;19.20;62.10
81935;DHT22;71405;47.674;-2.050;2024-02-16T08:41:57;19.20;62.20
81935;DHT22;71405;47.674;-2.050;2024-02-16T08:44:25;19.20;62.00
81935;DHT22;71405;47.674;-2.050;2024-02-16T08:46:51;19.20;62.10
81935;DHT22;71405;47.674;-2.050;2024-02-16T08:49:18;19.20;62.10
81935;DHT22;71405;47.674;-2.050;2024-02-16T08:51:44;19.20;62.00
81935;DHT22;71405;47.674;-2.050;2024-02-16T08:54:10;19.20;62.00
81935;DHT22;71405;47.674;-2.050;2024-02-16T08:56:36;19.20;62.00
81935;DHT22;71405;47.674;-2.050;2024-02-16T08:59:05;19.20;61.80
81935;DHT22;71405;47.674;-2.050;2024-02-16T09:01:34;19.20;62.10
81935;DHT22;71405;47.674;-2.050;2024-02-16T09:04:00;19.20;61.80
81935;DHT22;71405;47.674;-2.050;2024-02-16T09:06:29;19.20;62.10
81935;DHT22;71405;47.674;-2.050;2024-02-16T09:08:56;19.20;62.10
81935;DHT22;71405;47.674;-2.050;2024-02-16T09:11:22;19.20;62.10
81935;DHT22;71405;47.674;-2.050;2024-02-16T09:13:48;19.20;61.90
81935;DHT22;71405;47.674;-2.050;2024-02-16T09:16:14;19.20;61.90
81935;DHT22;71405;47.674;-2.050;2024-02-16T09:18:40;19.20;61.90
81935;DHT22;71405;47.674;-2.050;2024-02-16T09:21:06;19.20;61.90
81935;DHT22;71405;47.674;-2.050;2024-02-16T09:23:33;19.20;62.00
81935;DHT22;71405;47.674;-2.050;2024-02-16T09:25:59;19.20;62.10
81935;DHT22;71405;47.674;-2.050;2024-02-16T09:28:25;19.20;62.00
81935;DHT22;71405;47.674;-2.050;2024-02-16T09:30:51;19.20;62.00
81935;DHT22;71405;47.674;-2.050;2024-02-16T09:33:17;19.20;62.00
81935;DHT22;71405;47.674;-2.050;2024-02-16T09:35:43;19.20;61.80
81935;DHT22;71405;47.674;-2.050;2024-02-16T09:38:08;19.20;62.00
81935;DHT22;71405;47.674;-2.050;2024-02-16T09:40:36;19.20;61.80
81935;DHT22;71405;47.674;-2.050;2024-02-16T09:43:02;19.20;62.00
81935;DHT22;71405;47.674;-2.050;2024-02-16T09:45:29;19.20;61.90
81935;DHT22;71405;47.674;-2.050;2024-02-16T09:47:55;19.20;61.90
81935;DHT22;71405;47.674;-2.050;2024-02-16T09:50:22;19.20;62.00
81935;DHT22;71405;47.674;-2.050;2024-02-16T09:52:50;19.20;62.00
81935;DHT22;71405;47.674;-2.050;2024-02-16T09:55:17;19.20;61.90
81935;DHT22;71405;47.674;-2.050;2024-02-16T09:57:43;19.20;61.90
81935;DHT22;71405;47.674;-2.050;2024-02-16T10:00:10;19.20;61.80
81935;DHT22;71405;47.674;-2.050;2024-02-16T10:02:42;19.20;61.90
81935;DHT22;71405;47.674;-2.050;2024-02-16T10:05:16;19.20;61.80
81935;DHT22;71405;47.674;-2.050;2024-02-16T10:07:43;19.20;61.20
81935;DHT22;71405;47.674;-2.050;2024-02-16T10:10:25;19.20;61.20
81935;DHT22;71405;47.674;-2.050;2024-02-16T10:13:05;19.20;61.00
81935;DHT22;71405;47.674;-2.050;2024-02-16T10:15:31;19.20;61.00
81935;DHT22;71405;47.674;-2.050;2024-02-16T10:20:24;19.30;60.80
81935;DHT22;71405;47.674;-2.050;2024-02-16T10:22:50;19.30;60.60
81935;DHT22;71405;47.674;-2.050;2024-02-16T10:25:15;19.30;60.70
81935;DHT22;71405;47.674;-2.050;2024-02-16T10:27:41;19.30;60.50
81935;DHT22;71405;47.674;-2.050;2024-02-16T10:30:07;19.30;60.50
81935;DHT22;71405;47.674;-2.050;2024-02-16T10:32:37;19.30;60.40
81935;DHT22;71405;47.674;-2.050;2024-02-16T10:35:04;19.30;60.20
81935;DHT22;71405;47.674;-2.050;2024-02-16T10:37:32;19.40;60.20
81935;DHT22;71405;47.674;-2.050;2024-02-16T10:39:59;19.30;60.10
81935;DHT22;71405;47.674;-2.050;2024-02-16T10:42:27;19.40;60.10
81935;DHT22;71405;47.674;-2.050;2024-02-16T10:44:53;19.40;60.20
81935;DHT22;71405;47.674;-2.050;2024-02-16T10:47:19;19.40;60.10
81935;DHT22;71405;47.674;-2.050;2024-02-16T10:49:45;19.40;60.10
81935;DHT22;71405;47.674;-2.050;2024-02-16T10:52:11;19.40;60.00
81935;DHT22;71405;47.674;-2.050;2024-02-16T10:54:40;19.40;60.00
81935;DHT22;71405;47.674;-2.050;2024-02-16T10:57:08;19.40;60.00
81935;DHT22;71405;47.674;-2.050;2024-02-16T10:59:43;19.40;59.90
81935;DHT22;71405;47.674;-2.050;2024-02-16T11:02:11;19.40;59.90
81935;DHT22;71405;47.674;-2.050;2024-02-16T11:04:38;19.40;59.90
81935;DHT22;71405;47.674;-2.050;2024-02-16T11:07:11;19.40;59.90
81935;DHT22;71405;47.674;-2.050;2024-02-16T11:09:39;19.40;59.70
81935;DHT22;71405;47.674;-2.050;2024-02-16T11:12:06;19.40;59.80
81935;DHT22;71405;47.674;-2.050;2024-02-16T11:14:41;19.40;59.60
81935;DHT22;71405;47.674;-2.050;2024-02-16T11:17:15;19.50;59.80
81935;DHT22;71405;47.674;-2.050;2024-02-16T11:19:48;19.50;59.70
81935;DHT22;71405;47.674;-2.050;2024-02-16T11:22:18;19.50;59.50
81935;DHT22;71405;47.674;-2.050;2024-02-16T11:24:48;19.50;59.70
81935;DHT22;71405;47.674;-2.050;2024-02-16T11:27:15;19.50;59.70
81935;DHT22;71405;47.674;-2.050;2024-02-16T11:29:45;19.50;59.60
81935;DHT22;71405;47.674;-2.050;2024-02-16T11:32:11;19.50;59.60
81935;DHT22;71405;47.674;-2.050;2024-02-16T11:34:37;19.50;59.60
81935;DHT22;71405;47.674;-2.050;2024-02-16T11:37:05;19.50;59.60
81935;DHT22;71405;47.674;-2.050;2024-02-16T11:39:31;19.50;59.60
81935;DHT22;71405;47.674;-2.050;2024-02-16T11:42:04;19.50;59.40
81935;DHT22;71405;47.674;-2.050;2024-02-16T11:44:40;19.50;59.50
81935;DHT22;71405;47.674;-2.050;2024-02-16T11:47:19;19.50;59.50
81935;DHT22;71405;47.674;-2.050;2024-02-16T11:49:46;19.50;59.60
81935;DHT22;71405;47.674;-2.050;2024-02-16T11:52:12;19.50;59.50
81935;DHT22;71405;47.674;-2.050;2024-02-16T11:54:37;19.50;59.40
81935;DHT22;71405;47.674;-2.050;2024-02-16T11:57:04;19.60;59.40
81935;DHT22;71405;47.674;-2.050;2024-02-16T11:59:30;19.60;59.50
81935;DHT22;71405;47.674;-2.050;2024-02-16T12:01:58;19.60;59.90
81935;DHT22;71405;47.674;-2.050;2024-02-16T12:04:28;19.60;59.50
81935;DHT22;71405;47.674;-2.050;2024-02-16T12:07:02;19.60;59.50
81935;DHT22;71405;47.674;-2.050;2024-02-16T12:09:28;19.60;59.50
81935;DHT22;71405;47.674;-2.050;2024-02-16T12:11:56;19.60;59.30
81935;DHT22;71405;47.674;-2.050;2024-02-16T12:14:22;19.60;59.50
81935;DHT22;71405;47.674;-2.050;2024-02-16T12:16:49;19.50;59.70
81935;DHT22;71405;47.674;-2.050;2024-02-16T12:19:16;19.50;59.30
81935;DHT22;71405;47.674;-2.050;2024-02-16T12:21:42;19.50;58.90
81935;DHT22;71405;47.674;-2.050;2024-02-16T12:24:08;19.50;59.10
81935;DHT22;71405;47.674;-2.050;2024-02-16T12:26:33;19.50;59.20
81935;DHT22;71405;47.674;-2.050;2024-02-16T12:28:59;19.50;59.30
81935;DHT22;71405;47.674;-2.050;2024-02-16T12:31:25;19.50;59.30
81935;DHT22;71405;47.674;-2.050;2024-02-16T12:33:52;19.50;59.30
81935;DHT22;71405;47.674;-2.050;2024-02-16T12:36:17;19.50;59.60
81935;DHT22;71405;47.674;-2.050;2024-02-16T12:38:43;19.50;59.60
81935;DHT22;71405;47.674;-2.050;2024-02-16T12:41:09;19.40;60.10
81935;DHT22;71405;47.674;-2.050;2024-02-16T12:43:35;19.50;60.10
81935;DHT22;71405;47.674;-2.050;2024-02-16T12:46:01;19.50;59.90
81935;DHT22;71405;47.674;-2.050;2024-02-16T12:48:29;19.40;59.90
81935;DHT22;71405;47.674;-2.050;2024-02-16T12:50:55;19.50;60.10
81935;DHT22;71405;47.674;-2.050;2024-02-16T12:53:22;19.50;60.20
81935;DHT22;71405;47.674;-2.050;2024-02-16T12:55:50;19.40;60.30
81935;DHT22;71405;47.674;-2.050;2024-02-16T12:58:16;19.40;60.50
81935;DHT22;71405;47.674;-2.050;2024-02-16T13:00:41;19.40;60.00
81935;DHT22;71405;47.674;-2.050;2024-02-16T13:03:07;19.40;58.80
81935;DHT22;71405;47.674;-2.050;2024-02-16T13:05:33;19.30;59.40
81935;DHT22;71405;47.674;-2.050;2024-02-16T13:08:00;19.30;59.30
81935;DHT22;71405;47.674;-2.050;2024-02-16T13:10:25;19.40;59.40
81935;DHT22;71405;47.674;-2.050;2024-02-16T13:12:51;19.30;59.90
81935;DHT22;71405;47.674;-2.050;2024-02-16T13:15:17;19.40;59.90
81935;DHT22;71405;47.674;-2.050;2024-02-16T13:17:42;19.40;59.70
81935;DHT22;71405;47.674;-2.050;2024-02-16T13:20:08;19.40;59.60
81935;DHT22;71405;47.674;-2.050;2024-02-16T13:22:37;19.40;60.00
81935;DHT22;71405;47.674;-2.050;2024-02-16T13:25:04;19.40;60.00
81935;DHT22;71405;47.674;-2.050;2024-02-16T13:27:30;19.30;59.70
81935;DHT22;71405;47.674;-2.050;2024-02-16T13:29:55;19.30;59.60
81935;DHT22;71405;47.674;-2.050;2024-02-16T13:32:21;19.30;59.70
81935;DHT22;71405;47.674;-2.050;2024-02-16T13:34:48;19.30;59.70
81935;DHT22;71405;47.674;-2.050;2024-02-16T13:37:13;19.30;59.60
81935;DHT22;71405;47.674;-2.050;2024-02-16T13:39:39;19.30;59.80
81935;DHT22;71405;47.674;-2.050;2024-02-16T13:42:05;19.30;59.90
81935;DHT22;71405;47.674;-2.050;2024-02-16T13:44:31;19.30;60.10
81935;DHT22;71405;47.674;-2.050;2024-02-16T13:46:57;19.30;60.00
81935;DHT22;71405;47.674;-2.050;2024-02-16T13:49:23;19.30;60.30
81935;DHT22;71405;47.674;-2.050;2024-02-16T13:51:48;19.30;60.10
81935;DHT22;71405;47.674;-2.050;2024-02-16T13:54:14;19.30;60.10
81935;DHT22;71405;47.674;-2.050;2024-02-16T13:56:40;19.30;60.00
81935;DHT22;71405;47.674;-2.050;2024-02-16T13:59:06;19.30;60.10
81935;DHT22;71405;47.674;-2.050;2024-02-16T14:01:33;19.30;60.10
81935;DHT22;71405;47.674;-2.050;2024-02-16T14:03:59;19.30;59.80
81935;DHT22;71405;47.674;-2.050;2024-02-16T14:06:25;19.30;59.90
81935;DHT22;71405;47.674;-2.050;2024-02-16T14:08:51;19.30;59.80
81935;DHT22;71405;47.674;-2.050;2024-02-16T14:11:18;19.30;59.90
81935;DHT22;71405;47.674;-2.050;2024-02-16T14:13:44;19.30;60.10
81935;DHT22;71405;47.674;-2.050;2024-02-16T14:16:10;19.30;60.00
81935;DHT22;71405;47.674;-2.050;2024-02-16T14:18:36;19.30;60.30
81935;DHT22;71405;47.674;-2.050;2024-02-16T14:21:03;19.30;60.30
81935;DHT22;71405;47.674;-2.050;2024-02-16T14:23:31;19.20;60.30
81935;DHT22;71405;47.674;-2.050;2024-02-16T14:25:58;19.30;60.00
81935;DHT22;71405;47.674;-2.050;2024-02-16T14:28:24;19.30;60.10
81935;DHT22;71405;47.674;-2.050;2024-02-16T14:30:49;19.30;60.20
81935;DHT22;71405;47.674;-2.050;2024-02-16T14:33:16;19.30;60.10
81935;DHT22;71405;47.674;-2.050;2024-02-16T14:35:43;19.20;60.10
81935;DHT22;71405;47.674;-2.050;2024-02-16T14:38:08;19.20;60.00
81935;DHT22;71405;47.674;-2.050;2024-02-16T14:40:34;19.30;60.10
81935;DHT22;71405;47.674;-2.050;2024-02-16T14:43:01;19.20;60.00
81935;DHT22;71405;47.674;-2.050;2024-02-16T14:45:27;19.30;59.90
81935;DHT22;71405;47.674;-2.050;2024-02-16T14:47:52;19.30;59.90
81935;DHT22;71405;47.674;-2.050;2024-02-16T14:50:18;19.30;59.80
81935;DHT22;71405;47.674;-2.050;2024-02-16T14:52:44;19.30;59.70
81935;DHT22;71405;47.674;-2.050;2024-02-16T14:55:11;19.30;59.70
81935;DHT22;71405;47.674;-2.050;2024-02-16T14:57:39;19.30;59.60
81935;DHT22;71405;47.674;-2.050;2024-02-16T15:00:09;19.30;59.70
81935;DHT22;71405;47.674;-2.050;2024-02-16T15:02:36;19.30;59.70
81935;DHT22;71405;47.674;-2.050;2024-02-16T15:05:04;19.30;59.60
81935;DHT22;71405;47.674;-2.050;2024-02-16T15:07:30;19.30;59.60
81935;DHT22;71405;47.674;-2.050;2024-02-16T15:09:56;19.30;59.70
81935;DHT22;71405;47.674;-2.050;2024-02-16T15:12:22;19.30;59.80
81935;DHT22;71405;47.674;-2.050;2024-02-16T15:14:50;19.30;59.70